createdAt,value
2023-01-29T00:01:32.714Z,21.48
2023-01-29T00:06:25.354Z,22.05
2023-01-29T00:11:18.224Z,16.95
2023-01-29T00:13:44.577Z,23.55
2023-01-29T00:18:41.323Z,24.30
2023-01-29T00:21:16.216Z,21.20
2023-01-29T00:23:43.005Z,20.42
2023-01-29T00:26:09.855Z,21.52
2023-01-29T00:28:36.530Z,23.08
2023-01-29T00:31:09.120Z,21.90
2023-01-29T00:33:35.821Z,26.77
2023-01-29T00:36:04.602Z,24.85
2023-01-29T00:38:33.622Z,21.95
2023-01-29T00:41:11.467Z,22.00
2023-01-29T00:43:37.821Z,22.08
2023-01-29T00:48:30.862Z,23.45
2023-01-29T00:50:57.270Z,19.58
2023-01-29T00:55:49.859Z,26.48
2023-01-29T00:58:16.228Z,22.13
2023-01-29T01:03:10.263Z,20.42
2023-01-29T01:05:36.594Z,21.45
2023-01-29T01:10:32.491Z,22.92
2023-01-29T01:13:04.195Z,21.83
2023-01-29T01:15:35.263Z,23.80
2023-01-29T01:18:02.906Z,24.05
2023-01-29T01:20:31.731Z,23.35
2023-01-29T01:22:58.063Z,23.65
2023-01-29T01:27:56.899Z,22.73
2023-01-29T01:30:23.841Z,26.45
2023-01-29T01:32:50.760Z,26.95
2023-01-29T01:35:17.211Z,25.58
2023-01-29T01:37:43.574Z,24.10
2023-01-29T01:42:47.177Z,27.70
2023-01-29T01:45:25.382Z,25.65
2023-01-29T01:47:58.902Z,26.80
2023-01-29T01:50:39.041Z,22.98
2023-01-29T01:53:15.073Z,24.83
2023-01-29T01:55:46.060Z,24.67
2023-01-29T01:58:21.256Z,22.63
2023-01-29T02:00:47.737Z,23.65
2023-01-29T02:03:14.290Z,26.95
2023-01-29T02:05:41.403Z,21.45
2023-01-29T02:08:08.321Z,24.40
2023-01-29T02:10:52.977Z,23.17
2023-01-29T02:13:19.397Z,23.90
2023-01-29T02:15:46.570Z,25.15
2023-01-29T02:18:15.027Z,27.65
2023-01-29T02:20:48.548Z,26.90
2023-01-29T02:23:17.821Z,26.08
2023-01-29T02:26:06.572Z,24.90
2023-01-29T02:28:38.144Z,24.38
2023-01-29T02:31:29.064Z,25.02
2023-01-29T02:34:10.893Z,25.67
2023-01-29T02:36:48.767Z,26.48
2023-01-29T02:39:36.447Z,27.00
2023-01-29T02:42:08.965Z,26.30
2023-01-29T02:44:56.035Z,24.55
2023-01-29T02:47:33.116Z,27.38
2023-01-29T02:50:25.299Z,26.45
2023-01-29T02:53:02.056Z,25.73
2023-01-29T02:55:41.831Z,26.70
2023-01-29T02:58:25.630Z,24.92
2023-01-29T03:00:54.081Z,24.60
2023-01-29T03:03:32.942Z,24.67
2023-01-29T03:06:20.718Z,25.33
2023-01-29T03:08:56.592Z,25.35
2023-01-29T03:11:23.464Z,25.42
2023-01-29T03:14:11.477Z,25.92
2023-01-29T03:16:51.479Z,25.23
2023-01-29T03:19:30.683Z,26.00
2023-01-29T03:21:59.828Z,22.88
2023-01-29T03:24:31.721Z,23.60
2023-01-29T03:27:01.919Z,24.05
2023-01-29T03:29:34.914Z,22.02
2023-01-29T03:32:01.794Z,25.60
2023-01-29T03:34:31.030Z,25.80
2023-01-29T03:37:07.267Z,23.27
2023-01-29T03:39:33.868Z,25.08
2023-01-29T03:42:16.587Z,26.65
2023-01-29T03:45:05.314Z,24.00
2023-01-29T03:48:04.626Z,26.08
2023-01-29T03:50:52.677Z,26.90
2023-01-29T03:53:30.492Z,24.67
2023-01-29T03:56:15.694Z,27.30
2023-01-29T03:59:02.555Z,25.13
2023-01-29T04:01:40.214Z,25.60
2023-01-29T04:04:17.576Z,25.38
2023-01-29T04:06:47.056Z,26.15
2023-01-29T04:09:27.718Z,26.88
2023-01-29T04:12:01.526Z,22.25
2023-01-29T04:14:28.891Z,23.80
2023-01-29T04:17:00.089Z,24.02
2023-01-29T04:19:27.458Z,28.63
2023-01-29T04:22:03.251Z,25.02
2023-01-29T04:24:30.044Z,25.33
2023-01-29T04:27:44.844Z,25.27
2023-01-29T04:30:47.110Z,24.20
2023-01-29T04:33:31.731Z,23.95
2023-01-29T04:36:13.422Z,26.08
2023-01-29T04:39:01.186Z,28.83
2023-01-29T04:41:36.227Z,25.92
2023-01-29T04:44:13.574Z,26.85
2023-01-29T04:49:29.535Z,24.75
2023-01-29T04:52:08.948Z,24.23
2023-01-29T04:54:54.999Z,26.00
2023-01-29T04:58:06.419Z,24.02
2023-01-29T05:00:44.284Z,26.23
2023-01-29T05:03:13.488Z,22.95
2023-01-29T05:05:42.734Z,26.55
2023-01-29T05:08:13.445Z,26.00
2023-01-29T05:10:40.354Z,25.85
2023-01-29T05:13:10.968Z,22.35
2023-01-29T05:15:41.001Z,24.83
2023-01-29T05:18:08.382Z,24.15
2023-01-29T05:20:38.606Z,26.80
2023-01-29T05:23:08.997Z,26.38
2023-01-29T05:25:35.464Z,27.15
2023-01-29T05:28:01.784Z,27.50
2023-01-29T05:32:54.346Z,27.05
2023-01-29T05:37:47.084Z,27.15
2023-01-29T05:42:39.778Z,30.17
2023-01-29T05:47:32.863Z,26.42
2023-01-29T05:52:25.541Z,25.17
2023-01-29T05:57:18.187Z,27.67
2023-01-29T06:02:11.001Z,28.92
2023-01-29T06:04:37.408Z,27.77
2023-01-29T06:09:30.262Z,28.55
2023-01-29T06:11:56.666Z,26.08
2023-01-29T06:16:49.411Z,26.63
2023-01-29T06:19:15.747Z,29.27
2023-01-29T06:24:08.779Z,29.92
2023-01-29T06:26:35.160Z,29.80
2023-01-29T06:31:38.174Z,28.58
2023-01-29T06:34:05.364Z,28.27
2023-01-29T06:36:31.753Z,28.67
2023-01-29T06:41:24.477Z,29.75
2023-01-29T06:46:17.727Z,23.30
2023-01-29T06:51:11.028Z,31.25
2023-01-29T06:53:38.736Z,27.38
2023-01-29T06:56:06.289Z,29.38
2023-01-29T06:58:33.588Z,28.45
2023-01-29T07:01:04.911Z,30.70
2023-01-29T07:03:31.437Z,28.05
2023-01-29T07:05:57.953Z,26.45
2023-01-29T07:08:24.364Z,30.10
2023-01-29T07:13:17.056Z,27.95
2023-01-29T07:18:09.911Z,28.27
2023-01-29T07:20:36.246Z,30.35
2023-01-29T07:23:02.555Z,30.67
2023-01-29T07:25:28.928Z,27.38
2023-01-29T07:30:22.010Z,31.48
2023-01-29T07:32:48.383Z,31.33
2023-01-29T07:37:41.056Z,25.27
2023-01-29T07:42:33.926Z,25.35
2023-01-29T07:45:00.298Z,24.25
2023-01-29T07:49:52.889Z,27.88
2023-01-29T07:54:48.576Z,22.85
2023-01-29T07:57:14.897Z,28.00
2023-01-29T07:59:41.257Z,28.15
2023-01-29T08:04:35.252Z,24.55
2023-01-29T08:07:01.650Z,26.15
2023-01-29T08:11:54.373Z,22.27
2023-01-29T08:14:20.745Z,26.08
2023-01-29T08:19:13.447Z,32.03
2023-01-29T08:24:06.369Z,28.27
2023-01-29T08:26:33.140Z,27.83
2023-01-29T08:28:59.536Z,26.80
2023-01-29T08:33:54.066Z,25.17
2023-01-29T08:36:20.447Z,28.00
2023-01-29T08:41:13.103Z,29.67
2023-01-29T08:46:06.614Z,27.27
2023-01-29T08:48:33.284Z,31.50
2023-01-29T08:51:01.358Z,31.75
2023-01-29T08:53:27.872Z,27.83
2023-01-29T08:55:54.441Z,30.35
2023-01-29T09:00:47.128Z,26.08
2023-01-29T09:03:13.987Z,27.58
2023-01-29T09:05:41.189Z,27.58
2023-01-29T09:08:08.988Z,27.92
2023-01-29T09:10:35.926Z,27.35
2023-01-29T09:13:02.326Z,25.70
2023-01-29T09:15:28.800Z,28.52
2023-01-29T09:17:55.167Z,25.33
2023-01-29T09:22:48.108Z,23.92
2023-01-29T09:25:15.153Z,27.67
2023-01-29T09:27:44.787Z,26.95
2023-01-29T09:30:11.763Z,27.75
2023-01-29T09:32:52.598Z,26.73
2023-01-29T09:35:19.825Z,23.10
2023-01-29T09:37:50.202Z,25.33
2023-01-29T09:40:26.648Z,26.67
2023-01-29T09:43:00.833Z,25.80
2023-01-29T09:45:29.208Z,33.22
2023-01-29T09:48:02.059Z,26.40
2023-01-29T09:50:39.428Z,25.88
2023-01-29T09:53:11.486Z,28.38
2023-01-29T09:55:45.567Z,24.63
2023-01-29T09:58:19.236Z,27.63
2023-01-29T10:00:57.585Z,23.25
2023-01-29T10:06:12.936Z,24.88
2023-01-29T10:09:01.129Z,25.13
2023-01-29T10:11:50.515Z,22.67
2023-01-29T10:14:22.535Z,22.50
2023-01-29T10:17:24.035Z,26.05
2023-01-29T10:20:34.367Z,22.90
2023-01-29T10:23:16.813Z,26.85
2023-01-29T10:25:45.584Z,26.73
2023-01-29T10:28:24.388Z,23.25
2023-01-29T10:30:56.195Z,27.63
2023-01-29T10:33:48.992Z,23.88
2023-01-29T10:36:26.215Z,24.08
2023-01-29T10:38:52.644Z,24.58
2023-01-29T10:41:45.217Z,25.15
2023-01-29T10:44:45.515Z,26.17
2023-01-29T10:47:22.050Z,26.10
2023-01-29T10:50:08.895Z,24.98
2023-01-29T10:52:46.174Z,26.92
2023-01-29T10:55:44.564Z,23.65
2023-01-29T10:58:33.995Z,24.20
2023-01-29T11:01:01.070Z,24.58
2023-01-29T11:03:30.449Z,26.20
2023-01-29T11:06:09.111Z,23.40
2023-01-29T11:08:45.909Z,22.30
2023-01-29T11:11:18.013Z,27.25
2023-01-29T11:13:57.179Z,24.90
2023-01-29T11:16:23.751Z,20.98
2023-01-29T11:18:58.667Z,24.75
2023-01-29T11:21:26.751Z,24.13
2023-01-29T11:24:13.959Z,28.85
2023-01-29T11:26:42.416Z,27.67
2023-01-29T11:29:26.945Z,23.52
2023-01-29T11:31:53.630Z,21.90
2023-01-29T11:34:24.527Z,25.23
2023-01-29T11:37:02.863Z,24.63
2023-01-29T11:39:31.499Z,24.05
2023-01-29T11:42:01.627Z,27.10
2023-01-29T11:44:41.441Z,24.88
2023-01-29T11:47:28.965Z,27.90
2023-01-29T11:49:57.976Z,26.73
2023-01-29T11:52:39.181Z,25.38
2023-01-29T11:55:14.097Z,28.10
2023-01-29T11:57:48.481Z,25.23
2023-01-29T12:00:26.099Z,27.60
2023-01-29T12:02:56.846Z,27.83
2023-01-29T12:05:25.676Z,30.60
2023-01-29T12:07:55.889Z,26.02
2023-01-29T12:10:37.058Z,28.88
2023-01-29T12:13:09.260Z,29.33
2023-01-29T12:15:37.283Z,29.40
2023-01-29T12:18:12.747Z,28.55
2023-01-29T12:20:52.011Z,27.05
2023-01-29T12:23:43.069Z,28.42
2023-01-29T12:26:14.852Z,30.30
2023-01-29T12:28:59.840Z,30.63
2023-01-29T12:31:45.032Z,30.20
2023-01-29T12:34:22.634Z,29.60
2023-01-29T12:37:00.942Z,30.00
2023-01-29T12:39:27.435Z,40.17
2023-01-29T12:42:00.991Z,31.02
2023-01-29T12:44:51.883Z,29.58
2023-01-29T12:47:26.607Z,27.77
2023-01-29T12:50:00.445Z,30.90
2023-01-29T12:52:42.408Z,32.30
2023-01-29T12:55:20.960Z,31.60
2023-01-29T12:57:56.034Z,34.15
2023-01-29T13:00:26.448Z,32.25
2023-01-29T13:03:07.709Z,30.08
2023-01-29T13:05:44.239Z,38.35
2023-01-29T13:08:35.752Z,37.17
2023-01-29T13:11:08.123Z,35.10
2023-01-29T13:13:41.260Z,34.58
2023-01-29T13:16:13.994Z,33.50
2023-01-29T13:18:45.850Z,34.90
2023-01-29T13:21:15.983Z,38.67
2023-01-29T13:23:48.603Z,36.92
2023-01-29T13:26:19.047Z,31.45
2023-01-29T13:28:46.557Z,31.35
2023-01-29T13:31:34.229Z,36.47
2023-01-29T13:34:24.790Z,31.10
2023-01-29T13:36:54.898Z,39.63
2023-01-29T13:39:34.277Z,35.35
2023-01-29T13:42:03.744Z,34.70
2023-01-29T13:44:37.587Z,34.15
2023-01-29T13:47:07.538Z,32.75
2023-01-29T13:49:38.962Z,38.63
2023-01-29T13:52:23.997Z,40.35
2023-01-29T13:54:55.519Z,34.00
2023-01-29T13:57:36.857Z,35.42
2023-01-29T14:00:05.381Z,36.83
2023-01-29T14:02:32.107Z,31.50
2023-01-29T14:05:29.551Z,39.38
2023-01-29T14:08:03.287Z,37.72
2023-01-29T14:10:31.647Z,40.80
2023-01-29T14:13:04.077Z,39.15
2023-01-29T14:15:33.312Z,37.50
2023-01-29T14:18:08.585Z,35.92
2023-01-29T14:20:48.750Z,35.33
2023-01-29T14:23:26.534Z,36.58
2023-01-29T14:25:53.159Z,36.33
2023-01-29T14:28:24.192Z,38.38
2023-01-29T14:30:51.665Z,34.08
2023-01-29T14:33:42.360Z,37.40
2023-01-29T14:36:13.169Z,35.05
2023-01-29T14:38:45.927Z,38.50
2023-01-29T14:41:24.589Z,37.08
2023-01-29T14:43:51.037Z,34.05
2023-01-29T14:46:44.329Z,36.47
2023-01-29T14:49:10.882Z,32.15
2023-01-29T14:51:41.688Z,33.50
2023-01-29T14:54:27.945Z,33.85
2023-01-29T14:57:04.013Z,35.72
2023-01-29T14:59:35.839Z,33.80
2023-01-29T15:02:15.599Z,37.03
2023-01-29T15:04:49.854Z,30.20
2023-01-29T15:07:32.145Z,30.48
2023-01-29T15:10:22.765Z,33.20
2023-01-29T15:12:56.936Z,35.10
2023-01-29T15:16:01.244Z,35.17
2023-01-29T15:18:42.480Z,27.05
2023-01-29T15:21:17.485Z,34.97
2023-01-29T15:23:44.718Z,31.27
2023-01-29T15:26:17.163Z,34.65
2023-01-29T15:28:47.218Z,28.77
2023-01-29T15:31:18.398Z,33.42
2023-01-29T15:33:48.051Z,31.27
2023-01-29T15:36:21.891Z,33.13
2023-01-29T15:38:48.518Z,33.17
2023-01-29T15:41:20.403Z,34.28
2023-01-29T15:43:57.174Z,34.47
2023-01-29T15:46:39.939Z,31.42
2023-01-29T15:49:15.904Z,31.67
2023-01-29T15:51:42.771Z,30.98
2023-01-29T15:54:15.924Z,34.67
2023-01-29T15:56:51.739Z,34.40
2023-01-29T15:59:22.882Z,32.05
2023-01-29T16:01:49.301Z,30.80
2023-01-29T16:04:24.288Z,38.13
2023-01-29T16:06:52.751Z,33.05
2023-01-29T16:09:23.213Z,32.17
2023-01-29T16:11:50.529Z,27.60
2023-01-29T16:14:20.498Z,30.83
2023-01-29T16:16:47.350Z,31.95
2023-01-29T16:19:28.389Z,32.10
2023-01-29T16:22:01.628Z,30.38
2023-01-29T16:24:30.620Z,35.17
2023-01-29T16:27:03.866Z,32.90
2023-01-29T16:29:32.850Z,34.80
2023-01-29T16:32:01.036Z,29.52
2023-01-29T16:34:37.793Z,38.25
2023-01-29T16:37:26.153Z,36.95
2023-01-29T16:39:52.848Z,34.85
2023-01-29T16:42:21.226Z,34.15
2023-01-29T16:45:27.838Z,30.38
2023-01-29T16:48:02.337Z,37.58
2023-01-29T16:50:40.573Z,37.88
2023-01-29T16:53:18.619Z,37.90
2023-01-29T16:55:47.755Z,37.13
2023-01-29T16:58:21.408Z,39.78
2023-01-29T17:00:53.060Z,40.72
2023-01-29T17:03:19.990Z,36.60
2023-01-29T17:05:46.950Z,38.10
2023-01-29T17:08:30.299Z,28.85
2023-01-29T17:10:56.905Z,31.25
2023-01-29T17:13:41.260Z,34.42
2023-01-29T17:18:53.633Z,39.58
2023-01-29T17:21:20.137Z,40.42
2023-01-29T17:23:46.543Z,36.13
2023-01-29T17:26:14.284Z,33.08
2023-01-29T17:28:41.543Z,37.75
2023-01-29T17:31:08.313Z,39.88
2023-01-29T17:33:37.349Z,35.88
2023-01-29T17:36:03.975Z,39.63
2023-01-29T17:38:30.321Z,37.33
2023-01-29T17:43:22.947Z,34.22
2023-01-29T17:48:27.177Z,38.33
2023-01-29T17:50:56.287Z,39.83
2023-01-29T17:53:24.853Z,38.30
2023-01-29T17:55:52.811Z,31.00
2023-01-29T18:00:48.045Z,41.20
2023-01-29T18:03:15.373Z,39.00
2023-01-29T18:05:43.628Z,36.67
2023-01-29T18:08:17.292Z,40.53
2023-01-29T18:10:44.587Z,41.40
2023-01-29T18:13:11.109Z,40.22
2023-01-29T18:15:37.709Z,36.15
2023-01-29T18:18:04.891Z,39.90
2023-01-29T18:20:32.143Z,36.55
2023-01-29T18:22:58.489Z,45.25
2023-01-29T18:27:52.206Z,36.85
2023-01-29T18:30:18.630Z,42.35
2023-01-29T18:35:11.328Z,36.55
2023-01-29T18:40:04.320Z,36.65
2023-01-29T18:42:31.863Z,42.60
2023-01-29T18:44:58.213Z,38.33
2023-01-29T18:49:50.913Z,36.53
2023-01-29T18:54:44.149Z,35.17
2023-01-29T18:57:14.153Z,35.13
2023-01-29T18:59:56.834Z,37.83
2023-01-29T19:02:23.436Z,34.45
2023-01-29T19:07:16.266Z,39.25
2023-01-29T19:09:42.979Z,37.25
2023-01-29T19:12:09.316Z,36.35
2023-01-29T19:17:01.956Z,33.97
2023-01-29T19:19:28.599Z,37.10
2023-01-29T19:21:55.146Z,34.85
2023-01-29T19:24:21.723Z,33.20
2023-01-29T19:26:48.725Z,35.88
2023-01-29T19:29:15.603Z,37.38
2023-01-29T19:31:42.398Z,34.03
2023-01-29T19:34:08.845Z,37.67
2023-01-29T19:36:36.307Z,36.70
2023-01-29T19:39:03.129Z,30.85
2023-01-29T19:41:29.516Z,37.97
2023-01-29T19:43:55.874Z,33.17
2023-01-29T19:48:48.580Z,34.42
2023-01-29T19:51:15.029Z,27.63
2023-01-29T19:53:42.432Z,37.88
2023-01-29T19:56:12.453Z,36.80
2023-01-29T19:58:39.103Z,38.50
2023-01-29T20:01:12.322Z,30.02
2023-01-29T20:03:38.760Z,28.77
2023-01-29T20:06:06.215Z,36.53
2023-01-29T20:08:33.429Z,38.80
2023-01-29T20:10:59.776Z,35.30
2023-01-29T20:15:53.222Z,34.67
2023-01-29T20:18:19.840Z,37.15
2023-01-29T20:20:48.481Z,32.00
2023-01-29T20:23:27.999Z,35.55
2023-01-29T20:26:02.529Z,34.08
2023-01-29T20:28:28.939Z,36.28
2023-01-29T20:30:55.427Z,37.08
2023-01-29T20:33:22.289Z,37.55
2023-01-29T20:36:00.042Z,37.03
2023-01-29T20:38:27.100Z,40.35
2023-01-29T20:40:53.488Z,37.40
2023-01-29T20:43:19.842Z,38.97
2023-01-29T20:48:12.776Z,36.25
2023-01-29T20:50:39.380Z,36.03
2023-01-29T20:55:32.105Z,38.85
2023-01-29T20:58:06.470Z,37.20
2023-01-29T21:00:33.432Z,35.25
2023-01-29T21:02:59.952Z,38.40
2023-01-29T21:05:26.395Z,38.05
2023-01-29T21:07:52.749Z,44.90
2023-01-29T21:12:45.825Z,46.00
2023-01-29T21:17:38.719Z,45.38
2023-01-29T21:20:05.554Z,38.22
2023-01-29T21:22:31.884Z,39.25
2023-01-29T21:27:25.220Z,38.95
2023-01-29T21:29:51.606Z,40.30
2023-01-29T21:32:17.972Z,40.00
2023-01-29T21:37:10.672Z,46.35
2023-01-29T21:39:37.102Z,42.40
2023-01-29T21:42:03.679Z,43.20
2023-01-29T21:44:30.646Z,46.47
2023-01-29T21:46:57.040Z,47.08
2023-01-29T21:49:23.737Z,45.00
2023-01-29T21:51:50.232Z,47.00
2023-01-29T21:54:16.621Z,42.17
2023-01-29T21:56:42.940Z,43.60
2023-01-29T22:01:38.678Z,42.40
2023-01-29T22:04:05.501Z,44.63
2023-01-29T22:06:31.848Z,43.10
2023-01-29T22:08:58.169Z,49.15
2023-01-29T22:11:24.530Z,44.83
2023-01-29T22:16:17.137Z,40.53
2023-01-29T22:18:43.499Z,50.42
2023-01-29T22:23:36.093Z,45.47
2023-01-29T22:28:29.696Z,42.75
2023-01-29T22:33:26.688Z,43.22
2023-01-29T22:38:20.321Z,46.40
2023-01-29T22:40:51.114Z,45.70
2023-01-29T22:43:17.690Z,45.60
2023-01-29T22:45:44.077Z,46.45
2023-01-29T22:50:38.474Z,41.03
2023-01-29T22:53:05.751Z,45.05
2023-01-29T22:55:32.992Z,43.97
2023-01-29T22:57:59.820Z,45.08
2023-01-29T23:00:26.337Z,41.40
2023-01-29T23:02:52.709Z,48.10
2023-01-29T23:07:45.669Z,46.03
2023-01-29T23:10:15.820Z,46.08
2023-01-29T23:12:42.415Z,48.75
2023-01-29T23:15:09.094Z,52.35
2023-01-29T23:17:35.439Z,46.58
2023-01-29T23:22:28.152Z,45.85
2023-01-29T23:24:54.504Z,46.15
2023-01-29T23:29:48.362Z,45.22
2023-01-29T23:32:20.528Z,46.17
2023-01-29T23:34:47.357Z,44.03
2023-01-29T23:37:13.912Z,45.25
2023-01-29T23:39:40.304Z,47.67
2023-01-29T23:44:32.956Z,45.35
2023-01-29T23:49:25.695Z,45.42
2023-01-29T23:54:18.470Z,46.10
2023-01-29T23:56:45.180Z,42.83
2023-01-29T23:59:12.284Z,52.17
